Time;durP1;ratioP1;P1;durP2;ratioP2;P2;SDS_P1;SDS_P2;PMS_P1;PMS_P2;Temp;Humidity;BMP_temperature;BMP_pressure;BME280_temperature;BME280_humidity;BME280_pressure;Samples;Min_cycle;Max_cycle;Signal;HPM_P1;HPM_P2
2022/03/24 00:06:18;;;;;;;22.45;16.40;;;9.40;53.70;;;;;;5630715;23;20050;-96
2022/03/24 00:28:14;;;;;;;22.42;17.38;;;9.20;54.10;;;;;;4740032;30;20136;-96
2022/03/24 00:37:25;;;;;;;21.55;15.23;;;9.10;54.30;;;;;;5514320;23;20066;-95
2022/03/24 01:02:47;;;;;;;21.67;17.55;;;8.90;54.60;;;;;;5079403;24;20046;31
2022/03/24 01:06:16;;;;;;;21.15;16.55;;;8.80;54.70;;;;;;5234028;23;21555;-95
2022/03/24 01:23:16;;;;;;;27.08;19.10;;;8.60;54.90;;;;;;5463003;23;19929;-96
2022/03/24 01:36:18;;;;;;;24.75;17.20;;;8.50;55.10;;;;;;5856871;24;21074;-96
2022/03/24 01:39:19;;;;;;;23.80;18.30;;;8.10;55.40;;;;;;4790308;30;20046;-93
2022/03/24 01:42:10;;;;;;;26.35;18.05;;;8.40;55.20;;;;;;5306617;24;20050;-96
2022/03/24 01:45:35;;;;;;;25.92;19.20;;;8.40;55.30;;;;;;5491919;24;20216;-96
2022/03/24 01:58:50;;;;;;;23.58;18.45;;;8.30;55.20;;;;;;5186234;23;20365;31
2022/03/24 02:02:15;;;;;;;25.85;18.45;;;8.30;55.30;;;;;;4835057;24;20556;-95
2022/03/24 02:18:11;;;;;;;25.80;17.58;;;8.10;55.50;;;;;;5523429;24;20058;-95
2022/03/24 02:24:59;;;;;;;21.17;16.95;;;8.10;55.70;;;;;;5244053;23;20437;31
2022/03/24 02:28:06;;;;;;;22.35;17.98;;;8.10;55.80;;;;;;4914068;23;20057;-96
2022/03/24 02:31:19;;;;;;;;;;;;;;;;;;;;;
2022/03/24 03:03:42;;;;;;;25.45;18.52;;;8.00;56.20;;;;;;4792098;29;20102;-96
2022/03/24 03:09:47;;;;;;;25.40;18.10;;;7.80;56.10;;;;;;5326526;24;20415;-96
2022/03/24 03:22:56;;;;;;;25.15;18.73;;;7.70;56.20;;;;;;5369819;23;20055;-96
2022/03/24 03:26:10;;;;;;;;;;;;;;;;;;;;;
2022/03/24 03:34:46;;;;;;;23.90;18.13;;;7.60;56.30;;;;;;4948112;23;20066;-96
2022/03/24 03:43:49;;;;;;;24.20;18.02;;;7.50;56.50;;;;;;5103272;23;20050;-96
2022/03/24 03:47:31;;;;;;;24.00;18.27;;;7.50;56.60;;;;;;5540151;24;20036;-95
2022/03/24 03:51:10;;;;;;;23.40;17.58;;;7.50;56.60;;;;;;5390090;24;20156;31
2022/03/24 04:21:07;;;;;;;23.47;19.17;;;7.20;57.00;;;;;;5882676;23;20247;31
2022/03/24 04:55:24;;;;;;;21.38;16.27;;;7.00;57.30;;;;;;5224803;24;20034;-95
2022/03/24 05:01:00;;;;;;;21.00;16.00;;;6.90;57.20;;;;;;5404902;24;20071;-95
2022/03/24 05:04:10;;;;;;;22.42;16.38;;;7.00;57.40;;;;;;5060907;24;20284;31
2022/03/24 05:20:54;;;;;;;25.33;18.27;;;6.80;57.50;;;;;;5611109;24;20028;-93
2022/03/24 05:24:13;;;;;;;;;;;;;;;;;;;;;
2022/03/24 05:34:19;;;;;;;24.80;18.63;;;6.70;57.50;;;;;;4999091;24;20352;-92
2022/03/24 05:37:28;;;;;;;31.52;21.65;;;6.70;57.60;;;;;;5131421;24;20087;-92
2022/03/24 05:40:52;;;;;;;25.48;19.50;;;6.70;57.60;;;;;;5327766;24;20054;-92
2022/03/24 05:46:33;;;;;;;26.13;18.60;;;6.60;57.70;;;;;;4906682;24;20074;-95
2022/03/24 05:49:30;;;;;;;26.30;18.98;;;6.80;57.80;;;;;;4918838;24;20055;-92
2022/03/24 05:56:16;;;;;;;30.02;20.73;;;6.60;57.90;;;;;;5298238;24;20096;-94
2022/03/24 05:59:28;;;;;;;30.10;21.90;;;6.20;57.80;;;;;;4957904;24;20066;-93
2022/03/24 06:02:48;;;;;;;32.33;23.38;;;7.00;58.50;;;;;;4865794;24;20167;31
2022/03/24 06:05:59;;;;;;;28.80;21.63;;;6.60;58.60;;;;;;4961291;24;20163;-91
2022/03/24 06:12:06;;;;;;;28.40;21.70;;;6.60;58.90;;;;;;5577752;23;20032;-92
2022/03/24 06:15:22;;;;;;;29.63;21.77;;;6.70;59.00;;;;;;4995312;24;20042;-93
2022/03/24 06:18:01;;;;;;;29.13;21.73;;;6.70;59.30;;;;;;5108850;24;20050;-90
2022/03/24 06:21:05;;;;;;;34.97;25.30;;;6.80;59.20;;;;;;4998942;24;20398;-90
2022/03/24 06:37:30;;;;;;;32.80;24.45;;;7.70;58.60;;;;;;4291565;24;20264;-95
2022/03/24 06:41:05;;;;;;;35.37;26.23;;;7.90;58.50;;;;;;5697240;24;20029;31
2022/03/24 06:48:06;;;;;;;40.30;29.48;;;8.20;58.40;;;;;;5691321;23;19921;-89
2022/03/24 07:01:29;;;;;;;41.05;31.05;;;8.80;58.00;;;;;;5021796;24;19968;31
2022/03/24 07:12:52;;;;;;;52.78;40.00;;;8.90;58.40;;;;;;5440974;24;20054;-90
2022/03/24 07:25:51;;;;;;;57.58;43.13;;;9.20;59.80;;;;;;5621149;23;20063;-93
2022/03/24 07:29:10;;;;;;;61.20;44.05;;;9.30;59.70;;;;;;5071877;24;20041;-91
2022/03/24 07:32:17;;;;;;;58.35;44.70;;;9.40;59.70;;;;;;4962294;24;20065;-91
2022/03/24 07:38:42;;;;;;;53.05;41.35;;;9.70;59.60;;;;;;5194965;24;20482;-89
2022/03/24 07:42:14;;;;;;;55.05;40.75;;;9.90;59.60;;;;;;5080307;24;20058;-89
2022/03/24 08:00:56;;;;;;;51.00;41.45;;;10.80;58.80;;;;;;5570350;23;19927;31
2022/03/24 08:04:19;;;;;;;56.40;41.78;;;11.10;58.40;;;;;;4837373;24;20066;-90
2022/03/24 08:10:40;;;;;;;53.58;40.80;;;11.70;57.90;;;;;;5439269;24;20339;-90
2022/03/24 08:13:50;;;;;;;;;;;;;;;;;;;;;
2022/03/24 08:17:06;;;;;;;48.35;38.25;;;12.20;57.00;;;;;;5282158;24;20072;-90
2022/03/24 08:20:16;;;;;;;49.15;40.00;;;12.50;56.50;;;;;;5208335;24;20064;-90
2022/03/24 08:30:05;;;;;;;47.20;37.60;;;13.50;55.70;;;;;;5471318;24;19927;-91
2022/03/24 08:37:54;;;;;;;48.63;38.70;;;14.10;55.30;;;;;;4875678;24;20107;-90
2022/03/24 08:40:42;;;;;;;48.65;38.22;;;14.30;54.80;;;;;;4827532;24;20255;-91
2022/03/24 08:47:40;;;;;;;48.42;38.35;;;14.90;53.10;;;;;;5030339;24;20073;-91
2022/03/24 08:51:01;;;;;;;46.30;38.20;;;15.50;52.60;;;;;;5060852;24;20133;-92
2022/03/24 08:54:26;;;;;;;45.88;37.95;;;15.80;52.20;;;;;;5164185;24;20054;-90
2022/03/24 08:57:38;;;;;;;45.72;37.30;;;16.10;51.90;;;;;;5494627;24;20096;-90
2022/03/24 09:00:54;;;;;;;42.88;35.55;;;16.10;51.50;;;;;;4846854;23;20061;-91
2022/03/24 09:03:54;;;;;;;42.20;32.92;;;16.60;50.90;;;;;;5212599;24;20032;-91
2022/03/24 09:17:42;;;;;;;40.60;30.08;;;17.30;45.90;;;;;;4842025;24;20060;-92
2022/03/24 09:21:08;;;;;;;38.35;29.73;;;17.50;45.90;;;;;;4868430;24;20123;-92
2022/03/24 09:24:49;;;;;;;43.75;31.02;;;17.60;45.10;;;;;;5202420;24;20061;-92
2022/03/24 09:41:43;;;;;;;37.40;29.35;;;18.20;44.50;;;;;;3560981;23;20345;-93
2022/03/24 09:45:02;;;;;;;39.40;31.13;;;18.30;42.90;;;;;;5100779;24;20134;-93
2022/03/24 10:01:20;;;;;;;41.10;32.40;;;18.90;42.90;;;;;;5092161;24;20110;-92
2022/03/24 10:16:04;;;;;;;36.47;30.80;;;19.30;40.70;;;;;;5386713;24;20029;-93
2022/03/24 10:20:02;;;;;;;39.70;31.60;;;19.40;40.50;;;;;;5173690;24;20154;-93
2022/03/24 10:23:21;;;;;;;43.42;31.15;;;19.40;40.30;;;;;;4818403;29;20129;-92
2022/03/24 10:31:45;;;;;;;36.22;30.52;;;19.40;39.30;;;;;;5220118;24;20135;-93
2022/03/24 10:35:04;;;;;;;36.97;31.30;;;19.40;39.50;;;;;;5050871;24;20073;-92
2022/03/24 10:43:57;;;;;;;36.13;30.60;;;19.50;38.70;;;;;;5618189;24;21230;-93
2022/03/24 10:50:22;;;;;;;35.08;26.10;;;19.60;37.90;;;;;;5518200;24;20054;-93
2022/03/24 10:53:12;;;;;;;31.15;26.55;;;19.70;38.70;;;;;;5466196;24;20080;-93
2022/03/24 11:36:46;;;;;;;28.67;25.00;;;20.20;37.90;;;;;;5130659;24;20137;-94
2022/03/24 11:52:48;;;;;;;32.47;25.95;;;20.20;37.50;;;;;;5324736;23;20024;-93
2022/03/24 12:45:50;;;;;;;;;;;;;;;;;;;;;
2022/03/24 13:27:23;;;;;;;;;;;;;;;;;;;;;
2022/03/24 13:35:45;;;;;;;19.85;15.20;;;21.10;36.10;;;;;;5262388;24;20374;-92
2022/03/24 14:13:29;;;;;;;21.77;14.23;;;21.10;34.70;;;;;;5536114;23;20054;-92
2022/03/24 15:10:10;;;;;;;34.83;23.40;;;20.70;37.20;;;;;;4844591;29;20065;-93
2022/03/24 15:23:54;;;;;;;35.10;28.05;;;20.70;38.40;;;;;;5213770;24;20033;31
2022/03/24 15:27:11;;;;;;;35.83;28.77;;;20.20;37.10;;;;;;4998817;24;21003;31
2022/03/24 15:29:52;;;;;;;37.40;30.30;;;20.40;38.00;;;;;;4892273;24;20061;-94
2022/03/24 15:39:01;;;;;;;32.80;26.83;;;19.90;38.70;;;;;;4938088;23;20058;-91
2022/03/24 16:01:51;;;;;;;39.67;32.45;;;19.70;38.90;;;;;;5243552;23;20137;-90
2022/03/24 16:16:59;;;;;;;50.45;38.10;;;19.20;38.80;;;;;;5203616;23;20029;31
2022/03/24 16:20:02;;;;;;;44.85;35.85;;;19.30;39.60;;;;;;5077125;24;20360;-91
2022/03/24 16:26:08;;;;;;;44.13;34.95;;;18.90;38.80;;;;;;5189419;24;20058;-91
2022/03/24 16:43:57;;;;;;;47.15;32.55;;;17.60;40.60;;;;;;5649423;23;20054;-90
2022/03/24 16:47:07;;;;;;;41.90;31.02;;;17.50;40.70;;;;;;5272789;24;20029;-88
2022/03/24 16:53:19;;;;;;;38.72;28.95;;;17.20;39.80;;;;;;5320575;23;20496;-90
2022/03/24 18:13:15;;;;;;;33.80;23.27;;;15.20;40.30;;;;;;6224859;22;1241262;-91
2022/03/24 18:15:42;;;;;;;29.92;23.05;;;15.00;40.00;;;;;;6294160;22;20019;-89
2022/03/24 18:18:08;;;;;;;32.60;21.95;;;15.00;39.70;;;;;;6318508;22;20312;-90
2022/03/24 18:20:34;;;;;;;33.05;22.05;;;14.80;39.80;;;;;;6319512;22;20061;-91
2022/03/24 18:23:00;;;;;;;32.60;23.38;;;14.80;39.90;;;;;;6327759;22;20015;-92
2022/03/24 18:25:25;;;;;;;30.80;23.58;;;14.60;39.90;;;;;;6321364;22;20022;-93
2022/03/24 18:28:10;;;;;;;31.05;21.30;;;14.60;40.30;;;;;;6319170;22;20434;-93
2022/03/24 18:30:39;;;;;;;29.15;20.67;;;14.50;40.90;;;;;;6317758;22;20018;-92
2022/03/24 18:33:06;;;;;;;28.23;20.23;;;14.40;41.80;;;;;;6319170;22;20015;-93
2022/03/24 18:35:32;;;;;;;28.77;19.98;;;14.40;41.90;;;;;;6318469;22;20054;-95
2022/03/24 18:38:01;;;;;;;29.88;22.48;;;14.30;41.60;;;;;;6318422;22;20015;-95
2022/03/24 18:40:26;;;;;;;27.90;21.55;;;14.40;42.00;;;;;;6292098;22;20067;-92
2022/03/24 18:42:54;;;;;;;28.30;21.80;;;14.20;42.10;;;;;;6317880;22;20068;-92
2022/03/24 18:45:20;;;;;;;29.15;22.13;;;14.20;42.40;;;;;;6298266;22;20053;-95
2022/03/24 18:47:47;;;;;;;25.80;20.30;;;14.10;42.50;;;;;;6329167;22;20015;-95
2022/03/24 18:50:12;;;;;;;27.23;20.77;;;14.10;42.90;;;;;;6321102;22;20054;-84
2022/03/24 18:52:38;;;;;;;27.13;20.75;;;14.00;43.00;;;;;;6315860;22;20019;-86
2022/03/24 18:55:05;;;;;;;31.13;21.23;;;14.30;43.00;;;;;;6330684;22;20021;-85
2022/03/24 18:57:31;;;;;;;28.17;20.05;;;13.90;42.10;;;;;;6331913;22;20019;-85
2022/03/24 18:59:57;;;;;;;27.98;20.45;;;13.80;41.90;;;;;;6336653;22;20026;-85
2022/03/24 19:02:23;;;;;;;26.65;20.13;;;13.80;42.50;;;;;;6323714;22;20019;-87
2022/03/24 19:04:48;;;;;;;28.88;21.70;;;14.00;43.00;;;;;;6309215;22;20019;-86
2022/03/24 19:07:14;;;;;;;30.00;22.58;;;13.70;43.30;;;;;;6305343;22;20097;-86
2022/03/24 19:09:41;;;;;;;28.98;22.58;;;13.60;43.00;;;;;;6305072;22;20019;-86
2022/03/24 19:12:07;;;;;;;29.80;22.40;;;13.60;43.10;;;;;;6305246;22;20058;-86
2022/03/24 19:14:33;;;;;;;29.42;21.40;;;13.50;43.20;;;;;;6279467;22;20019;-86
2022/03/24 19:16:58;;;;;;;27.48;20.45;;;13.60;43.50;;;;;;6273439;22;20035;-85
2022/03/24 19:19:28;;;;;;;31.58;22.33;;;13.60;43.60;;;;;;6275284;22;20022;-84
2022/03/24 19:21:54;;;;;;;31.10;22.92;;;13.30;43.30;;;;;;6246411;22;20026;-84
2022/03/24 19:24:20;;;;;;;35.78;27.00;;;13.50;43.50;;;;;;6272043;22;20019;-85
2022/03/24 19:26:46;;;;;;;38.17;25.65;;;13.30;43.30;;;;;;6273134;22;20026;-85
2022/03/24 19:29:13;;;;;;;31.63;24.15;;;13.60;43.80;;;;;;6272912;22;20031;-85
2022/03/24 19:31:40;;;;;;;29.92;23.08;;;13.10;43.90;;;;;;6272377;22;20103;-85
2022/03/24 19:34:07;;;;;;;32.28;24.08;;;13.40;44.30;;;;;;6272952;22;20170;-85
2022/03/24 19:36:33;;;;;;;29.80;23.10;;;12.80;44.30;;;;;;6273762;22;20458;-84
2022/03/24 19:39:02;;;;;;;30.75;23.90;;;12.90;45.00;;;;;;6274877;22;20020;-85
2022/03/24 19:41:28;;;;;;;31.23;23.40;;;12.80;44.80;;;;;;6256310;22;20498;-84
2022/03/24 19:43:53;;;;;;;33.08;24.67;;;12.90;45.00;;;;;;6275657;22;20034;-84
2022/03/24 19:46:20;;;;;;;36.47;26.80;;;12.70;45.20;;;;;;6272050;22;20026;-84
2022/03/24 19:48:46;;;;;;;38.47;27.88;;;12.70;45.40;;;;;;6245541;22;20455;-84
2022/03/24 19:51:12;;;;;;;41.53;31.52;;;12.80;45.80;;;;;;6273869;22;20027;-86
2022/03/24 19:53:37;;;;;;;45.70;32.13;;;12.60;46.00;;;;;;6271426;22;20145;-84
2022/03/24 19:56:04;;;;;;;39.28;31.98;;;12.50;46.30;;;;;;6272268;22;20023;-85
2022/03/24 19:58:30;;;;;;;41.22;32.58;;;12.40;46.50;;;;;;6271202;22;20370;-84
2022/03/24 20:00:55;;;;;;;41.47;31.83;;;12.70;46.90;;;;;;6271659;22;20020;-85
2022/03/24 20:03:21;;;;;;;45.35;33.88;;;12.30;46.90;;;;;;6272816;22;20038;-85
2022/03/24 20:05:47;;;;;;;50.50;35.85;;;12.40;47.30;;;;;;6271306;22;20008;-84
2022/03/24 20:08:13;;;;;;;50.40;37.08;;;12.20;47.50;;;;;;6273409;22;20278;-84
2022/03/24 20:10:39;;;;;;;49.70;38.20;;;12.10;47.80;;;;;;6273522;22;20528;-85
2022/03/24 20:13:05;;;;;;;48.40;38.95;;;12.00;48.10;;;;;;6270898;22;20027;-86
2022/03/24 20:15:31;;;;;;;52.08;39.88;;;12.00;48.40;;;;;;6270545;22;20102;-85
2022/03/24 20:17:57;;;;;;;53.53;40.17;;;11.80;48.60;;;;;;6271776;22;20107;-85
2022/03/24 20:20:23;;;;;;;50.38;40.30;;;11.80;48.90;;;;;;6246421;22;20533;-86
2022/03/24 20:22:50;;;;;;;51.75;39.58;;;11.60;49.00;;;;;;6272891;22;20457;-86
2022/03/24 20:25:17;;;;;;;52.90;39.15;;;12.10;49.50;;;;;;6272456;22;20024;-85
2022/03/24 20:27:43;;;;;;;52.17;39.72;;;11.60;49.40;;;;;;6273674;22;20020;-86
2022/03/24 20:30:12;;;;;;;54.70;42.00;;;11.70;49.60;;;;;;6271082;22;20023;-85
2022/03/24 20:32:39;;;;;;;55.33;43.08;;;11.50;49.80;;;;;;6246221;22;20414;-85
2022/03/24 20:35:05;;;;;;;55.58;42.60;;;12.00;50.30;;;;;;6272409;22;20015;-85
2022/03/24 20:37:32;;;;;;;57.22;43.85;;;11.40;50.30;;;;;;6272109;22;20066;-87
2022/03/24 20:40:00;;;;;;;56.40;43.95;;;11.30;50.50;;;;;;6272050;22;20454;-86
2022/03/24 20:42:27;;;;;;;58.17;44.67;;;11.60;50.90;;;;;;6274820;22;20023;-86
2022/03/24 20:44:53;;;;;;;59.47;44.95;;;11.20;50.90;;;;;;6271470;22;20450;-86
2022/03/24 20:47:19;;;;;;;60.90;46.92;;;11.70;51.20;;;;;;6271879;22;20016;-86
2022/03/24 20:49:45;;;;;;;61.05;47.47;;;11.50;51.30;;;;;;6245123;22;20107;-86
2022/03/24 20:52:13;;;;;;;67.45;54.25;;;11.10;51.30;;;;;;6273198;22;20015;-86
2022/03/24 20:54:39;;;;;;;69.68;54.88;;;11.40;51.70;;;;;;6271376;22;20092;-86
2022/03/24 20:57:05;;;;;;;71.25;56.25;;;10.90;51.60;;;;;;6245539;22;20085;-87
2022/03/24 20:59:31;;;;;;;70.55;55.10;;;10.80;51.70;;;;;;6271046;22;20098;-86
2022/03/24 21:01:57;;;;;;;67.97;53.38;;;10.80;51.90;;;;;;6273194;22;20054;-85
2022/03/24 21:04:22;;;;;;;65.15;51.70;;;11.00;52.20;;;;;;6273399;22;20015;-86
2022/03/24 21:06:48;;;;;;;65.85;49.50;;;10.70;52.20;;;;;;6270939;22;20046;-86
2022/03/24 21:09:14;;;;;;;58.80;45.97;;;10.70;52.30;;;;;;6273498;22;20030;-88
2022/03/24 21:11:40;;;;;;;62.88;47.70;;;10.50;52.30;;;;;;6245299;22;20119;-86
2022/03/24 21:14:06;;;;;;;63.88;46.78;;;10.50;52.50;;;;;;6270806;22;20490;-86
2022/03/24 21:16:32;;;;;;;61.70;47.92;;;10.40;52.60;;;;;;6269619;22;20062;-86
2022/03/24 21:18:58;;;;;;;63.40;47.58;;;10.40;52.90;;;;;;6269070;22;20030;-86
2022/03/24 21:21:25;;;;;;;64.40;49.28;;;10.70;53.30;;;;;;6269730;22;20027;-85
2022/03/24 21:23:51;;;;;;;64.07;48.28;;;10.20;53.30;;;;;;6245056;22;20016;-85
2022/03/24 21:26:17;;;;;;;60.45;46.53;;;10.70;53.80;;;;;;6244520;22;20023;-86
2022/03/24 21:28:42;;;;;;;61.03;46.33;;;10.30;53.60;;;;;;6269820;22;20016;-86
2022/03/24 21:31:08;;;;;;;63.42;47.88;;;10.20;53.60;;;;;;6244441;22;20035;-85
2022/03/24 21:33:35;;;;;;;55.90;44.03;;;10.10;53.60;;;;;;6271284;22;20025;-85
2022/03/24 21:36:01;;;;;;;60.05;45.65;;;9.90;53.60;;;;;;6271259;22;20454;-86
2022/03/24 21:38:27;;;;;;;61.78;46.70;;;9.90;53.70;;;;;;6272754;22;20015;-86
2022/03/24 21:40:53;;;;;;;60.83;45.78;;;10.30;54.10;;;;;;6273152;22;20051;-85
2022/03/24 21:43:19;;;;;;;62.05;45.33;;;9.80;53.90;;;;;;6271992;22;20015;-86
2022/03/24 21:45:45;;;;;;;62.20;47.78;;;9.80;54.00;;;;;;6270461;22;20019;-86
2022/03/24 21:48:10;;;;;;;59.45;46.15;;;9.70;54.00;;;;;;6270869;22;20015;-86
2022/03/24 21:50:39;;;;;;;59.42;46.10;;;9.60;54.10;;;;;;6246064;22;20023;-86
2022/03/24 21:53:05;;;;;;;64.00;47.30;;;9.60;54.30;;;;;;6271163;22;20055;-85
2022/03/24 21:55:31;;;;;;;63.90;47.60;;;9.60;54.50;;;;;;6273607;22;20051;-85
2022/03/24 21:57:57;;;;;;;63.25;46.00;;;9.50;54.70;;;;;;6271692;22;20026;-86
2022/03/24 22:00:23;;;;;;;64.43;47.25;;;9.40;54.80;;;;;;6246516;22;20019;-87
2022/03/24 22:02:49;;;;;;;61.25;45.58;;;9.50;55.00;;;;;;6272006;22;20343;-87
2022/03/24 22:05:15;;;;;;;65.25;46.90;;;9.50;55.40;;;;;;6271385;22;20315;-87
2022/03/24 22:07:41;;;;;;;67.38;48.55;;;9.30;55.50;;;;;;6271748;22;20027;-86
2022/03/24 22:10:07;;;;;;;64.35;47.28;;;9.20;55.40;;;;;;6274802;22;20050;-87
2022/03/24 22:12:33;;;;;;;67.80;50.22;;;9.20;55.60;;;;;;6274346;22;20016;-88
2022/03/24 22:14:58;;;;;;;64.75;48.28;;;9.10;55.70;;;;;;6274910;22;20019;-86
2022/03/24 22:17:24;;;;;;;69.35;49.95;;;9.10;55.80;;;;;;6275300;22;20054;-86
2022/03/24 22:19:50;;;;;;;67.47;47.80;;;9.00;56.00;;;;;;6275200;22;20022;-85
2022/03/24 22:22:16;;;;;;;66.95;48.33;;;9.00;56.10;;;;;;6274983;22;20023;-85
2022/03/24 22:24:42;;;;;;;66.65;48.53;;;8.90;56.20;;;;;;6278037;22;20031;-83
2022/03/24 22:27:07;;;;;;;69.35;49.00;;;8.90;56.20;;;;;;6277466;22;20012;-84
2022/03/24 22:29:33;;;;;;;65.57;48.15;;;8.90;56.40;;;;;;6276669;22;20027;-84
2022/03/24 22:32:03;;;;;;;72.93;50.65;;;8.90;56.50;;;;;;6277320;22;20386;-83
2022/03/24 22:34:29;;;;;;;70.43;51.42;;;8.80;56.60;;;;;;6275329;22;20016;-83
2022/03/24 22:36:55;;;;;;;63.55;47.15;;;8.80;56.70;;;;;;6274068;22;20019;-83
2022/03/24 22:39:25;;;;;;;64.60;48.70;;;8.80;56.80;;;;;;6279085;22;20061;-84
2022/03/24 22:41:51;;;;;;;62.13;47.45;;;8.70;56.80;;;;;;6280228;22;20012;-82
2022/03/24 22:44:17;;;;;;;66.05;48.22;;;9.20;57.10;;;;;;6279067;22;20130;-85
2022/03/24 22:46:43;;;;;;;64.10;46.22;;;8.60;56.90;;;;;;6276572;22;20016;-85
2022/03/24 22:49:09;;;;;;;69.38;48.08;;;8.60;57.00;;;;;;6279322;22;20058;-85
2022/03/24 22:51:36;;;;;;;64.68;46.83;;;9.00;57.20;;;;;;6277368;22;20461;-85
2022/03/24 22:54:02;;;;;;;60.65;45.35;;;8.80;57.20;;;;;;6276999;22;20038;-85
2022/03/24 22:56:28;;;;;;;68.20;47.42;;;8.50;57.10;;;;;;6277270;22;20019;-85
2022/03/24 22:58:54;;;;;;;67.10;49.03;;;8.40;57.20;;;;;;6276575;22;20015;-85
2022/03/24 23:01:20;;;;;;;68.38;48.22;;;8.40;57.40;;;;;;6276853;22;20076;-84
2022/03/24 23:03:47;;;;;;;66.88;47.95;;;8.40;57.50;;;;;;6275823;22;20051;-86
2022/03/24 23:06:14;;;;;;;65.75;47.97;;;8.30;57.60;;;;;;6279392;22;20336;-85
2022/03/24 23:08:40;;;;;;;65.53;48.63;;;8.70;57.90;;;;;;6250920;22;20043;-85
2022/03/24 23:11:07;;;;;;;66.20;48.03;;;8.40;57.90;;;;;;6276577;22;20362;-86
2022/03/24 23:13:33;;;;;;;62.35;46.38;;;8.40;58.00;;;;;;6253014;22;20015;-86
2022/03/24 23:17:25;;;;;;;64.80;47.97;;;8.20;57.90;;;;;;6281129;22;20019;-86
2022/03/24 23:19:51;;;;;;;59.38;42.92;;;8.20;58.00;;;;;;6279115;22;20015;-85
2022/03/24 23:22:17;;;;;;;59.67;43.15;;;8.10;57.90;;;;;;6278816;22;20095;-86
2022/03/24 23:24:43;;;;;;;61.45;43.58;;;8.10;58.00;;;;;;6277849;22;20399;-86
2022/03/24 23:27:09;;;;;;;61.80;45.40;;;8.10;58.00;;;;;;6279461;22;20098;-85
2022/03/24 23:29:35;;;;;;;66.40;46.60;;;8.10;58.10;;;;;;6277109;22;20024;-86
2022/03/24 23:32:01;;;;;;;62.67;45.75;;;8.10;58.10;;;;;;6277007;22;20027;-85
2022/03/24 23:34:26;;;;;;;63.10;45.53;;;8.00;58.20;;;;;;6276761;22;20011;-85
2022/03/24 23:36:52;;;;;;;59.55;43.13;;;8.00;58.20;;;;;;6251439;22;20031;-85
2022/03/24 23:39:18;;;;;;;59.08;44.78;;;8.00;58.30;;;;;;6276903;22;20022;-85
2022/03/24 23:41:43;;;;;;;60.53;44.47;;;8.00;58.30;;;;;;6277340;22;20039;-85
2022/03/24 23:44:09;;;;;;;57.80;44.25;;;8.00;58.30;;;;;;6276466;22;20443;-85
2022/03/24 23:46:35;;;;;;;66.82;46.42;;;8.00;58.30;;;;;;6278599;22;20019;-85
2022/03/24 23:49:01;;;;;;;68.45;47.95;;;7.90;58.30;;;;;;6277309;22;20008;-85
2022/03/24 23:51:27;;;;;;;63.28;44.70;;;8.00;58.40;;;;;;6278170;22;20091;-84
2022/03/24 23:53:53;;;;;;;63.90;47.13;;;7.90;58.40;;;;;;6278136;22;20417;-85
2022/03/24 23:56:19;;;;;;;61.80;44.13;;;7.90;58.50;;;;;;6278587;22;20024;-85
2022/03/24 23:58:45;;;;;;;56.42;42.42;;;7.90;58.50;;;;;;6250501;22;20089;-84
